Time;durP1;ratioP1;P1;durP2;ratioP2;P2;SDS_P1;SDS_P2;PMS_P1;PMS_P2;Temp;Humidity;BMP_temperature;BMP_pressure;BME280_temperature;BME280_humidity;BME280_pressure;Samples;Min_cycle;Max_cycle;Signal;HPM_P1;HPM_P2
2023/07/08 00:00:27;;;;;;;7.47;3.28;;;20.60;90.20;;;;;;4872664;29;20375;-60
2023/07/08 00:02:55;;;;;;;6.68;3.50;;;20.60;90.20;;;;;;4858439;29;20049;-61
2023/07/08 00:05:25;;;;;;;6.82;3.22;;;20.50;90.20;;;;;;4858308;29;20431;-59
2023/07/08 00:07:53;;;;;;;5.53;3.50;;;20.50;90.20;;;;;;4846944;29;20070;-59
2023/07/08 00:10:23;;;;;;;7.82;3.70;;;20.50;90.30;;;;;;4858196;29;20053;-64
2023/07/08 00:12:55;;;;;;;8.73;3.95;;;20.50;90.00;;;;;;4856159;29;20041;-64
2023/07/08 00:15:32;;;;;;;8.18;3.72;;;20.40;90.30;;;;;;4857699;29;20041;-61
2023/07/08 00:18:00;;;;;;;7.68;3.63;;;20.40;90.30;;;;;;4857096;29;20053;-61
2023/07/08 00:20:48;;;;;;;5.65;2.95;;;20.40;90.30;;;;;;4855464;29;20056;-61
2023/07/08 00:23:16;;;;;;;9.18;3.28;;;20.40;90.40;;;;;;4844976;29;20513;-63
2023/07/08 00:25:44;;;;;;;6.70;3.08;;;20.30;90.50;;;;;;4838751;29;20056;-60
2023/07/08 00:28:17;;;;;;;7.32;3.17;;;20.20;90.50;;;;;;4854407;29;20058;-60
2023/07/08 00:30:45;;;;;;;8.13;3.38;;;20.20;90.60;;;;;;4855222;29;20407;-62
2023/07/08 00:33:13;;;;;;;7.15;3.78;;;20.20;90.70;;;;;;4868031;29;20050;-60
2023/07/08 00:35:43;;;;;;;7.47;3.45;;;20.20;90.70;;;;;;4851956;29;20048;-59
2023/07/08 00:38:20;;;;;;;;;;;20.10;90.70;;;;;;4853305;29;20061;-59
2023/07/08 00:41:01;;;;;;;6.78;3.47;;;20.10;90.80;;;;;;4854977;29;19928;-60
2023/07/08 00:43:54;;;;;;;5.45;3.25;;;20.00;90.90;;;;;;4854385;29;20050;-59
2023/07/08 00:46:29;;;;;;;6.88;3.17;;;20.00;90.90;;;;;;4853417;29;20421;-59
2023/07/08 00:49:08;;;;;;;8.70;3.90;;;20.00;91.10;;;;;;4854814;29;20056;-60
2023/07/08 00:51:37;;;;;;;10.38;3.25;;;19.90;91.10;;;;;;4852041;29;20394;-60
2023/07/08 00:54:17;;;;;;;7.55;3.25;;;19.80;91.00;;;;;;4862665;29;20068;-60
2023/07/08 00:57:03;;;;;;;6.35;3.10;;;19.90;91.30;;;;;;4853729;29;20067;-60
2023/07/08 00:59:40;;;;;;;8.75;3.58;;;19.80;91.30;;;;;;4867948;29;20038;-58
2023/07/08 01:02:10;;;;;;;7.65;3.63;;;19.80;91.40;;;;;;4862694;29;20050;-60
2023/07/08 01:04:47;;;;;;;5.28;3.13;;;19.80;91.40;;;;;;4851144;29;20053;-60
2023/07/08 01:07:22;;;;;;;9.30;3.65;;;19.80;91.50;;;;;;4848033;29;20049;-60
2023/07/08 01:09:58;;;;;;;6.35;3.40;;;19.80;91.50;;;;;;4850384;29;20061;-60
2023/07/08 01:12:31;;;;;;;6.88;3.47;;;19.70;91.30;;;;;;4850045;29;20053;-60
2023/07/08 01:15:02;;;;;;;5.60;3.10;;;19.70;91.50;;;;;;4852883;29;20050;-64
2023/07/08 01:17:33;;;;;;;11.30;3.60;;;19.30;91.50;;;;;;4855037;29;20407;-60
2023/07/08 01:20:12;;;;;;;6.40;3.63;;;19.70;91.60;;;;;;4853402;29;20490;-60
2023/07/08 01:22:42;;;;;;;7.53;3.17;;;19.60;91.60;;;;;;4848012;29;20046;-62
2023/07/08 01:25:11;;;;;;;12.93;3.63;;;19.60;91.60;;;;;;4855443;29;20391;-61
2023/07/08 01:27:45;;;;;;;7.13;3.65;;;19.60;91.70;;;;;;4840815;29;20053;-59
2023/07/08 01:30:15;;;;;;;8.25;2.85;;;19.60;91.60;;;;;;4855899;29;20050;-61
2023/07/08 01:32:51;;;;;;;7.05;3.17;;;19.60;91.70;;;;;;4838909;29;20049;-60
2023/07/08 01:35:19;;;;;;;7.43;3.00;;;19.60;91.70;;;;;;4871838;29;20049;-60
2023/07/08 01:37:54;;;;;;;7.30;3.53;;;19.60;91.70;;;;;;4858370;29;20394;-58
2023/07/08 01:40:27;;;;;;;7.32;3.42;;;19.60;91.80;;;;;;4859217;29;20053;-59
2023/07/08 01:42:56;;;;;;;6.25;3.30;;;19.60;91.80;;;;;;4859317;29;20060;-62
2023/07/08 01:45:26;;;;;;;7.97;3.47;;;19.60;91.80;;;;;;4857856;29;20056;-65
2023/07/08 01:47:58;;;;;;;5.72;3.45;;;19.50;91.90;;;;;;4859052;29;20049;-65
2023/07/08 01:50:27;;;;;;;6.70;3.40;;;19.50;91.90;;;;;;4860205;29;20057;-63
2023/07/08 01:52:58;;;;;;;6.40;3.10;;;19.50;91.90;;;;;;4858927;29;20437;-66
2023/07/08 01:55:30;;;;;;;7.55;3.78;;;19.50;92.00;;;;;;4859617;29;20402;-64
2023/07/08 01:57:58;;;;;;;5.85;3.50;;;19.50;92.00;;;;;;4873669;29;20498;-63
2023/07/08 02:00:26;;;;;;;6.47;3.13;;;19.40;92.10;;;;;;4860126;29;20053;-60
2023/07/08 02:02:54;;;;;;;7.40;3.50;;;19.40;92.10;;;;;;4842752;29;20056;-61
2023/07/08 02:05:23;;;;;;;8.18;3.75;;;19.40;92.20;;;;;;4857903;29;20064;-60
2023/07/08 02:07:51;;;;;;;7.47;2.78;;;19.40;92.20;;;;;;4858129;29;20057;-59
2023/07/08 02:10:19;;;;;;;9.35;3.45;;;19.30;92.30;;;;;;4859245;29;20045;-61
2023/07/08 02:12:47;;;;;;;8.80;2.90;;;19.30;92.20;;;;;;4857574;29;20058;-59
2023/07/08 02:15:15;;;;;;;6.63;3.33;;;19.30;92.50;;;;;;4848221;29;20054;-64
2023/07/08 02:17:43;;;;;;;5.28;3.20;;;19.30;92.50;;;;;;4873929;29;20045;-63
2023/07/08 02:20:11;;;;;;;5.85;3.63;;;19.20;92.50;;;;;;4872814;29;20267;-66
2023/07/08 02:22:38;;;;;;;5.60;3.38;;;19.20;92.60;;;;;;4859615;29;20053;-65
2023/07/08 02:25:06;;;;;;;7.90;3.45;;;19.20;92.70;;;;;;4858026;29;20053;-66
2023/07/08 02:27:34;;;;;;;7.38;3.33;;;19.10;92.80;;;;;;4873725;29;20045;-65
2023/07/08 02:30:02;;;;;;;6.97;3.72;;;19.10;92.90;;;;;;4859578;29;20049;-64
2023/07/08 02:32:30;;;;;;;6.80;2.97;;;19.10;93.00;;;;;;4860142;29;20054;-64
2023/07/08 02:34:57;;;;;;;8.18;3.30;;;19.10;93.10;;;;;;4871287;29;20056;-65
2023/07/08 02:37:25;;;;;;;5.35;3.20;;;19.10;93.10;;;;;;4858572;29;20053;-65
2023/07/08 02:39:53;;;;;;;4.75;3.00;;;19.10;93.20;;;;;;4855375;29;20406;-60
2023/07/08 02:42:21;;;;;;;6.45;2.85;;;19.10;93.30;;;;;;4858872;29;20041;-59
2023/07/08 02:44:48;;;;;;;5.82;3.40;;;19.10;93.30;;;;;;4859018;29;20061;-65
2023/07/08 02:47:16;;;;;;;8.10;3.58;;;19.10;93.50;;;;;;4859165;29;20053;-59
2023/07/08 02:49:45;;;;;;;6.65;3.28;;;19.10;93.50;;;;;;4858002;29;20045;-61
2023/07/08 02:52:13;;;;;;;6.05;3.75;;;19.10;93.70;;;;;;4842692;29;20049;-60
2023/07/08 02:54:40;;;;;;;7.93;3.17;;;19.10;93.80;;;;;;4857360;29;20050;-60
2023/07/08 02:57:08;;;;;;;5.95;3.00;;;19.10;93.80;;;;;;4857426;29;20402;-60
2023/07/08 02:59:36;;;;;;;13.73;3.40;;;19.10;93.90;;;;;;4857869;29;20060;-64
2023/07/08 03:02:04;;;;;;;7.10;3.33;;;19.10;94.00;;;;;;4858256;29;20076;-60
2023/07/08 03:04:31;;;;;;;5.28;3.33;;;19.10;94.10;;;;;;4857830;29;20049;-59
2023/07/08 03:06:59;;;;;;;9.10;3.17;;;19.10;94.20;;;;;;4857645;29;20053;-59
2023/07/08 03:09:28;;;;;;;6.90;3.45;;;19.10;94.20;;;;;;4858859;29;20080;-60
2023/07/08 03:11:56;;;;;;;5.03;3.10;;;19.10;94.30;;;;;;4855542;29;20084;-59
2023/07/08 03:14:24;;;;;;;7.10;3.50;;;19.10;94.60;;;;;;4861202;29;20379;-60
2023/07/08 03:16:52;;;;;;;8.52;3.40;;;19.10;94.40;;;;;;4859030;29;20060;-59
2023/07/08 03:19:19;;;;;;;5.15;3.05;;;19.10;94.50;;;;;;4858780;29;20076;-59
2023/07/08 03:21:48;;;;;;;7.78;3.60;;;19.10;94.70;;;;;;4857728;29;20049;-59
2023/07/08 03:24:18;;;;;;;6.10;3.17;;;19.10;94.80;;;;;;4856935;29;20060;-59
2023/07/08 03:26:47;;;;;;;6.20;3.72;;;19.10;94.80;;;;;;4857554;29;20057;-60
2023/07/08 03:29:17;;;;;;;7.40;3.40;;;19.10;95.00;;;;;;4858806;29;20049;-59
2023/07/08 03:31:46;;;;;;;6.28;2.97;;;19.10;95.00;;;;;;4857497;29;20483;-59
2023/07/08 03:34:16;;;;;;;9.98;3.17;;;19.10;95.10;;;;;;4857318;29;20056;-60
2023/07/08 03:36:49;;;;;;;6.63;3.10;;;19.10;95.20;;;;;;4873133;29;20054;-61
2023/07/08 03:39:21;;;;;;;6.80;3.20;;;19.10;95.20;;;;;;4857454;29;20620;-60
2023/07/08 03:41:50;;;;;;;7.65;3.45;;;19.10;95.40;;;;;;4858674;29;20049;-59
2023/07/08 03:44:19;;;;;;;6.47;3.70;;;19.10;95.50;;;;;;4869817;29;20053;-59
2023/07/08 03:46:52;;;;;;;8.00;3.28;;;19.10;95.50;;;;;;4846194;29;20049;-58
2023/07/08 03:49:23;;;;;;;6.88;3.63;;;19.10;95.50;;;;;;4857455;29;20041;-60
2023/07/08 03:51:53;;;;;;;6.43;2.95;;;19.10;95.70;;;;;;4841512;29;20062;-61
2023/07/08 03:54:23;;;;;;;11.87;4.00;;;19.10;95.70;;;;;;4858366;29;20495;-59
2023/07/08 03:56:54;;;;;;;7.53;3.42;;;19.10;95.80;;;;;;4858299;29;20645;-60
2023/07/08 03:59:24;;;;;;;5.90;3.50;;;19.20;95.80;;;;;;4857495;29;20402;-59
2023/07/08 04:01:53;;;;;;;9.13;3.30;;;19.20;96.10;;;;;;4872602;29;20050;-60
2023/07/08 04:04:23;;;;;;;11.55;3.53;;;19.20;95.90;;;;;;4859204;29;20046;-59
2023/07/08 04:06:51;;;;;;;7.38;3.55;;;19.20;95.90;;;;;;4861701;29;20065;-58
2023/07/08 04:09:19;;;;;;;4.93;3.03;;;19.20;96.00;;;;;;4861666;29;20041;-59
2023/07/08 04:11:46;;;;;;;7.75;3.50;;;19.20;95.80;;;;;;4861407;29;20403;-59
2023/07/08 04:14:14;;;;;;;7.60;3.10;;;19.20;96.10;;;;;;4861701;29;20053;-59
2023/07/08 04:16:45;;;;;;;7.47;3.38;;;19.20;96.00;;;;;;4862014;29;20566;-59
2023/07/08 04:19:14;;;;;;;6.63;3.92;;;19.30;96.10;;;;;;4861853;29;20049;-64
2023/07/08 04:21:44;;;;;;;6.47;3.60;;;19.30;96.10;;;;;;4860015;29;20497;-60
2023/07/08 04:24:13;;;;;;;6.90;2.97;;;19.30;96.20;;;;;;4860686;29;20056;-60
2023/07/08 04:26:42;;;;;;;5.82;3.60;;;19.20;96.20;;;;;;4861153;29;20498;-59
2023/07/08 04:29:14;;;;;;;7.88;3.60;;;19.20;96.20;;;;;;4861439;29;20494;-60
2023/07/08 04:31:42;;;;;;;6.03;3.25;;;19.20;96.40;;;;;;4861345;29;20057;-59
2023/07/08 04:34:10;;;;;;;7.03;3.20;;;19.20;96.40;;;;;;4861196;29;20398;-60
2023/07/08 04:36:37;;;;;;;8.48;3.90;;;19.30;96.50;;;;;;4860967;29;20600;-59
2023/07/08 04:39:07;;;;;;;9.05;3.45;;;19.30;96.50;;;;;;4858781;29;20052;-59
2023/07/08 04:41:40;;;;;;;9.25;3.70;;;19.30;96.50;;;;;;4859518;29;20049;-59
2023/07/08 04:44:10;;;;;;;8.50;3.50;;;19.30;96.50;;;;;;4860393;29;20443;-65
2023/07/08 04:46:42;;;;;;;6.20;3.65;;;19.30;96.50;;;;;;4858383;29;20383;-61
2023/07/08 04:49:10;;;;;;;7.18;3.80;;;19.40;96.60;;;;;;4851078;29;20050;-61
2023/07/08 04:51:38;;;;;;;7.55;3.72;;;19.40;96.60;;;;;;4847788;29;20565;-60
2023/07/08 04:54:07;;;;;;;8.10;4.20;;;19.40;96.80;;;;;;4858027;29;20052;-64
2023/07/08 04:56:37;;;;;;;8.00;3.75;;;19.40;96.90;;;;;;4857616;29;20520;-63
2023/07/08 04:59:07;;;;;;;11.85;4.03;;;19.40;97.00;;;;;;4856282;29;20065;-62
2023/07/08 05:01:35;;;;;;;7.45;3.35;;;19.30;97.10;;;;;;4857630;29;20074;-60
2023/07/08 05:04:07;;;;;;;7.05;3.42;;;19.30;97.20;;;;;;4848250;29;20045;-62
2023/07/08 05:06:35;;;;;;;10.45;3.55;;;19.30;97.30;;;;;;4854753;29;20394;-66
2023/07/08 05:09:03;;;;;;;5.32;3.08;;;19.30;97.30;;;;;;4856602;29;20386;-66
2023/07/08 05:11:32;;;;;;;8.13;3.63;;;19.30;97.10;;;;;;4856132;29;20056;-62
2023/07/08 05:13:59;;;;;;;9.80;3.60;;;19.30;97.30;;;;;;4855151;29;20050;-66
2023/07/08 05:16:27;;;;;;;11.05;3.97;;;19.30;97.30;;;;;;4855715;29;20057;-65
2023/07/08 05:18:55;;;;;;;8.48;3.53;;;19.30;97.30;;;;;;4850885;29;20417;-65
2023/07/08 05:21:24;;;;;;;7.07;4.20;;;19.40;97.40;;;;;;4855177;29;20056;-66
2023/07/08 05:23:53;;;;;;;;;;;19.40;97.40;;;;;;4855948;29;20120;-61
2023/07/08 05:26:21;;;;;;;13.80;3.70;;;19.30;97.50;;;;;;4856025;29;19927;-64
2023/07/08 05:28:49;;;;;;;7.47;4.03;;;19.30;97.60;;;;;;4857081;29;20058;-61
2023/07/08 05:31:18;;;;;;;7.55;3.70;;;19.30;97.60;;;;;;4854985;29;20053;-65
2023/07/08 05:33:46;;;;;;;6.85;3.72;;;19.30;97.50;;;;;;4846413;29;20515;-63
2023/07/08 05:36:13;;;;;;;9.95;3.90;;;19.30;97.70;;;;;;4851714;29;20054;-62
2023/07/08 05:38:41;;;;;;;7.95;3.60;;;19.40;97.80;;;;;;4855407;29;20061;-66
2023/07/08 05:41:08;;;;;;;7.85;3.88;;;19.40;97.90;;;;;;4855672;29;20506;-65
2023/07/08 05:43:36;;;;;;;7.10;3.40;;;19.40;97.90;;;;;;4857149;29;20596;-66
2023/07/08 05:46:04;;;;;;;7.90;3.55;;;19.50;98.00;;;;;;4856194;29;20402;-65
2023/07/08 05:48:39;;;;;;;9.98;3.85;;;19.50;98.00;;;;;;4845677;29;20069;-65
2023/07/08 05:51:07;;;;;;;6.65;3.47;;;19.50;98.00;;;;;;4838018;29;20042;-61
2023/07/08 05:53:35;;;;;;;11.20;4.20;;;19.60;98.30;;;;;;4863077;29;20401;-65
2023/07/08 05:56:04;;;;;;;8.77;3.70;;;19.70;98.10;;;;;;4853740;29;20384;-65
2023/07/08 05:58:32;;;;;;;10.40;4.10;;;19.70;98.10;;;;;;4856555;29;20402;-65
2023/07/08 06:01:00;;;;;;;8.40;4.30;;;19.80;98.20;;;;;;4855691;29;20065;-61
2023/07/08 06:03:29;;;;;;;7.30;4.20;;;19.80;98.20;;;;;;4853119;29;20056;-65
2023/07/08 06:05:56;;;;;;;10.52;3.92;;;19.80;98.30;;;;;;4854409;29;20045;-65
2023/07/08 06:08:24;;;;;;;10.02;4.13;;;19.90;98.30;;;;;;4850595;29;20058;-60
2023/07/08 06:10:51;;;;;;;8.93;4.32;;;19.90;98.20;;;;;;4853157;29;20046;-60
2023/07/08 06:13:19;;;;;;;8.05;4.00;;;20.00;98.40;;;;;;4855723;29;20061;-60
2023/07/08 06:15:47;;;;;;;12.50;3.50;;;20.00;98.60;;;;;;4835183;29;20368;-60
2023/07/08 06:18:14;;;;;;;8.98;4.07;;;20.00;98.60;;;;;;4846005;29;20037;-60
2023/07/08 06:20:51;;;;;;;11.30;4.30;;;20.10;98.40;;;;;;4852614;29;20058;-60
2023/07/08 06:23:19;;;;;;;9.32;4.10;;;20.10;98.50;;;;;;4869779;29;20065;-60
2023/07/08 06:25:46;;;;;;;8.82;4.07;;;20.20;98.60;;;;;;4844859;29;20495;-60
2023/07/08 06:28:14;;;;;;;7.10;3.95;;;20.30;98.60;;;;;;4855472;29;20069;-60
2023/07/08 06:30:42;;;;;;;8.93;3.88;;;20.30;98.60;;;;;;4854484;29;20045;-58
2023/07/08 06:33:11;;;;;;;8.05;4.05;;;20.40;98.60;;;;;;4854815;29;20494;-59
2023/07/08 06:35:40;;;;;;;6.82;4.18;;;20.40;98.70;;;;;;4853292;29;20056;-61
2023/07/08 06:38:08;;;;;;;9.07;4.22;;;20.50;98.60;;;;;;4856226;29;20502;-60
2023/07/08 06:40:35;;;;;;;12.55;4.05;;;20.50;98.90;;;;;;4856334;29;20053;-61
2023/07/08 06:43:03;;;;;;;7.65;4.32;;;20.60;98.60;;;;;;4860331;29;20698;-59
2023/07/08 06:45:41;;;;;;;8.40;3.70;;;20.70;98.60;;;;;;4854240;29;20311;-60
2023/07/08 06:48:09;;;;;;;9.10;4.05;;;20.80;98.80;;;;;;4846873;29;20042;-65
2023/07/08 06:50:38;;;;;;;7.57;4.13;;;20.80;98.70;;;;;;4844657;29;20092;-62
2023/07/08 06:53:07;;;;;;;8.73;4.00;;;21.00;98.80;;;;;;4869286;29;20053;-62
2023/07/08 06:55:35;;;;;;;7.32;3.88;;;21.10;98.90;;;;;;4855906;29;20049;-65
2023/07/08 06:58:03;;;;;;;8.35;4.35;;;21.30;98.80;;;;;;4862123;29;20057;-61
2023/07/08 07:00:30;;;;;;;9.75;4.60;;;21.40;98.30;;;;;;4862213;29;20056;-61
2023/07/08 07:02:59;;;;;;;7.28;3.97;;;21.50;98.30;;;;;;4850690;29;20065;-62
2023/07/08 07:05:27;;;;;;;9.95;4.00;;;21.60;98.20;;;;;;4850646;29;20510;-59
2023/07/08 07:07:56;;;;;;;6.05;3.58;;;21.60;98.30;;;;;;4855550;29;20049;-59
2023/07/08 07:10:24;;;;;;;11.07;4.32;;;21.60;98.30;;;;;;4855724;29;20545;-60
2023/07/08 07:12:51;;;;;;;11.68;4.10;;;21.60;98.40;;;;;;4859695;29;20045;-65
2023/07/08 07:15:19;;;;;;;5.53;3.38;;;21.70;98.40;;;;;;4854527;29;20056;-62
2023/07/08 07:17:46;;;;;;;6.32;3.80;;;21.70;98.50;;;;;;4854594;29;20042;-62
2023/07/08 07:20:14;;;;;;;6.97;3.95;;;21.80;98.50;;;;;;4861963;29;20053;-65
2023/07/08 07:22:42;;;;;;;7.13;4.03;;;21.90;98.60;;;;;;4855837;29;20424;-64
2023/07/08 07:25:10;;;;;;;11.30;4.55;;;21.90;98.50;;;;;;4855914;29;20045;-65
2023/07/08 07:27:37;;;;;;;7.68;4.03;;;22.00;98.40;;;;;;4856282;29;20120;-66
2023/07/08 07:30:06;;;;;;;9.07;3.95;;;22.10;98.40;;;;;;4851419;29;20074;-67
2023/07/08 07:32:34;;;;;;;6.88;4.22;;;22.20;98.40;;;;;;4853407;29;20053;-66
2023/07/08 07:35:02;;;;;;;9.73;3.55;;;22.20;98.20;;;;;;4853482;29;20049;-60
2023/07/08 07:37:30;;;;;;;6.40;3.47;;;22.30;98.40;;;;;;4855063;29;20064;-63
2023/07/08 07:39:58;;;;;;;9.07;4.50;;;22.40;98.50;;;;;;4869539;29;20052;-66
2023/07/08 07:42:28;;;;;;;7.20;4.15;;;22.50;98.30;;;;;;4873747;29;20053;-67
2023/07/08 07:44:56;;;;;;;10.43;4.15;;;22.60;98.20;;;;;;4860148;29;20067;-62
2023/07/08 07:47:23;;;;;;;7.03;4.20;;;22.70;98.10;;;;;;4858831;29;20060;-62
2023/07/08 07:49:51;;;;;;;8.02;4.03;;;22.80;98.10;;;;;;4852164;29;20045;-67
2023/07/08 07:52:23;;;;;;;7.55;4.03;;;22.80;98.10;;;;;;4873684;29;20061;-67
2023/07/08 07:54:53;;;;;;;5.85;3.95;;;22.80;98.00;;;;;;4857284;29;20422;-67
2023/07/08 07:57:22;;;;;;;10.85;4.45;;;22.80;98.20;;;;;;4858314;29;20415;-66
2023/07/08 07:59:50;;;;;;;7.20;4.07;;;22.90;98.20;;;;;;4858979;29;20056;-61
2023/07/08 08:02:18;;;;;;;11.10;3.90;;;22.80;98.10;;;;;;4867883;29;20050;-64
2023/07/08 08:04:46;;;;;;;6.13;4.00;;;22.90;98.20;;;;;;4847559;29;20045;-60
2023/07/08 08:07:14;;;;;;;7.85;4.30;;;22.80;98.40;;;;;;4854868;29;20402;-66
2023/07/08 08:09:41;;;;;;;8.15;4.10;;;22.80;98.50;;;;;;4857324;29;20046;-66
2023/07/08 08:12:11;;;;;;;13.63;3.70;;;22.90;98.60;;;;;;4857841;29;20061;-67
2023/07/08 08:14:39;;;;;;;10.93;4.28;;;22.90;98.60;;;;;;4860513;29;20053;-64
2023/07/08 08:17:07;;;;;;;9.07;4.25;;;23.00;98.70;;;;;;4857087;29;20402;-65
2023/07/08 08:19:35;;;;;;;8.48;3.90;;;23.10;98.60;;;;;;4857074;29;20548;-63
2023/07/08 08:22:04;;;;;;;7.47;3.67;;;23.20;98.60;;;;;;4855779;29;20057;-62
2023/07/08 08:24:31;;;;;;;5.82;3.75;;;23.30;98.50;;;;;;4871174;29;20057;-63
2023/07/08 08:26:59;;;;;;;6.50;3.97;;;23.30;98.30;;;;;;4858067;29;20052;-62
2023/07/08 08:29:26;;;;;;;6.70;3.53;;;23.40;98.40;;;;;;4866571;29;20052;-60
2023/07/08 08:31:54;;;;;;;8.40;4.20;;;23.40;98.30;;;;;;4858430;29;20057;-61
2023/07/08 08:34:23;;;;;;;7.80;3.95;;;23.40;98.30;;;;;;4850168;29;20053;-60
2023/07/08 08:36:55;;;;;;;16.30;4.25;;;23.50;98.00;;;;;;4874222;29;20056;-61
2023/07/08 08:39:24;;;;;;;11.65;3.92;;;23.50;98.00;;;;;;4871902;29;20486;-61
2023/07/08 08:41:56;;;;;;;7.28;3.70;;;23.60;97.90;;;;;;4874886;29;20053;-60
2023/07/08 08:44:34;;;;;;;7.88;3.78;;;23.60;98.00;;;;;;4848961;29;20474;-60
2023/07/08 08:47:34;;;;;;;10.20;3.90;;;23.70;97.90;;;;;;4852776;29;20062;-59
2023/07/08 08:50:31;;;;;;;4.55;2.78;;;23.80;98.10;;;;;;4853987;29;20068;-59
2023/07/08 08:53:03;;;;;;;4.85;2.85;;;23.80;97.30;;;;;;4867406;29;20049;-59
2023/07/08 08:55:31;;;;;;;6.60;3.47;;;23.80;97.40;;;;;;4855599;29;20486;-60
2023/07/08 08:58:14;;;;;;;5.47;2.80;;;23.80;97.20;;;;;;4846609;29;20438;-60
2023/07/08 09:00:54;;;;;;;10.68;3.13;;;23.80;97.20;;;;;;4856193;29;20041;-60
2023/07/08 09:03:53;;;;;;;6.30;2.88;;;23.80;97.50;;;;;;4860872;29;20065;-59
2023/07/08 09:06:25;;;;;;;6.85;3.08;;;24.10;97.50;;;;;;4845705;29;20060;-59
2023/07/08 09:08:55;;;;;;;4.47;2.63;;;24.10;97.70;;;;;;4851111;29;20068;-61
2023/07/08 09:11:31;;;;;;;5.28;2.45;;;24.30;97.50;;;;;;4838984;29;20053;-61
2023/07/08 09:13:58;;;;;;;6.53;2.65;;;24.50;97.30;;;;;;4855268;29;20216;-58
2023/07/08 09:16:49;;;;;;;7.38;2.78;;;24.50;97.00;;;;;;4859770;29;20488;-61
2023/07/08 09:19:33;;;;;;;7.72;2.60;;;24.60;97.10;;;;;;4854151;29;20049;-63
2023/07/08 09:22:15;;;;;;;5.53;2.50;;;24.60;97.20;;;;;;4853325;29;20045;-65
2023/07/08 09:25:15;;;;;;;5.80;2.38;;;24.60;97.10;;;;;;4855761;29;20061;-65
2023/07/08 09:27:45;;;;;;;5.20;2.20;;;24.70;97.10;;;;;;4855736;29;20057;-65
2023/07/08 09:30:15;;;;;;;5.05;2.55;;;24.70;97.10;;;;;;4855795;29;20057;-64
2023/07/08 09:32:43;;;;;;;5.53;2.35;;;24.70;96.90;;;;;;4852916;29;20053;-65
2023/07/08 09:35:19;;;;;;;6.40;2.40;;;24.70;97.00;;;;;;4849808;29;20095;-61
2023/07/08 09:37:48;;;;;;;8.20;2.50;;;24.70;96.70;;;;;;4856580;29;20049;-59
2023/07/08 09:40:18;;;;;;;4.82;2.25;;;24.70;96.70;;;;;;4864841;29;20053;-59
2023/07/08 09:42:54;;;;;;;5.20;2.65;;;24.70;96.70;;;;;;4866163;29;20037;-61
2023/07/08 09:45:24;;;;;;;5.97;2.47;;;24.60;96.40;;;;;;4866585;29;20046;-61
2023/07/08 09:47:56;;;;;;;9.95;2.85;;;24.60;96.40;;;;;;4843871;29;20524;-60
2023/07/08 09:50:27;;;;;;;3.47;2.00;;;24.50;96.50;;;;;;4849158;29;20050;-60
2023/07/08 09:52:57;;;;;;;3.50;2.15;;;24.60;96.50;;;;;;4845170;29;20699;-60
2023/07/08 09:55:25;;;;;;;13.65;2.55;;;24.60;96.50;;;;;;4865094;29;20053;-59
2023/07/08 09:57:55;;;;;;;6.13;2.47;;;24.60;96.60;;;;;;4869509;29;20056;-60
2023/07/08 10:00:36;;;;;;;3.65;1.80;;;24.60;96.40;;;;;;4854953;29;20054;-60
2023/07/08 10:03:12;;;;;;;2.72;2.15;;;24.60;96.40;;;;;;4845994;29;20054;-58
2023/07/08 10:05:43;;;;;;;5.25;2.15;;;24.50;96.60;;;;;;4851284;29;20645;-60
2023/07/08 10:08:22;;;;;;;5.47;2.08;;;24.50;96.80;;;;;;4870549;29;20042;-60
2023/07/08 10:11:03;;;;;;;5.35;2.10;;;24.50;96.60;;;;;;4874576;29;20053;-59
2023/07/08 10:13:34;;;;;;;4.25;2.15;;;24.50;96.50;;;;;;4856498;29;20498;-61
2023/07/08 10:16:27;;;;;;;3.92;1.88;;;24.50;96.60;;;;;;4843783;29;20049;-59
2023/07/08 10:18:57;;;;;;;5.55;2.03;;;24.50;96.80;;;;;;4848316;29;20057;-61
2023/07/08 10:21:36;;;;;;;4.78;1.92;;;24.40;96.80;;;;;;4838536;29;20057;-61
2023/07/08 10:24:41;;;;;;;4.45;2.22;;;24.30;96.50;;;;;;4848420;29;20061;-59
2023/07/08 10:27:30;;;;;;;4.72;1.92;;;24.20;96.60;;;;;;4865249;29;20072;-60
2023/07/08 10:30:10;;;;;;;5.50;2.33;;;24.10;96.70;;;;;;4843974;29;20062;-61
2023/07/08 10:33:15;;;;;;;5.03;1.90;;;24.00;96.40;;;;;;4838763;29;20549;-60
2023/07/08 10:35:46;;;;;;;6.72;2.38;;;23.90;96.80;;;;;;4854099;29;20050;-62
2023/07/08 10:38:42;;;;;;;5.97;2.30;;;23.80;97.00;;;;;;4852847;29;20053;-62
2023/07/08 10:41:30;;;;;;;5.20;1.92;;;23.70;97.70;;;;;;4852019;29;20060;-59
2023/07/08 10:44:26;;;;;;;5.25;2.20;;;23.60;98.10;;;;;;4848230;29;20049;-59
2023/07/08 10:47:34;;;;;;;8.35;2.30;;;23.20;98.50;;;;;;4847832;29;20061;-61
2023/07/08 10:50:07;;;;;;;7.97;2.15;;;22.80;99.40;;;;;;4847686;29;20056;-60
2023/07/08 10:52:42;;;;;;;6.35;2.47;;;22.50;99.80;;;;;;4852747;29;20841;-61
2023/07/08 10:55:46;;;;;;;5.50;2.20;;;22.30;99.90;;;;;;4852115;29;20049;-59
2023/07/08 10:58:25;;;;;;;6.38;2.20;;;22.10;99.90;;;;;;4843872;29;20057;-60
2023/07/08 11:01:07;;;;;;;7.25;2.35;;;21.80;99.90;;;;;;4838383;29;20050;-58
2023/07/08 11:03:57;;;;;;;7.50;2.30;;;21.80;99.90;;;;;;4845178;29;20414;-60
2023/07/08 11:06:34;;;;;;;;;;;21.80;99.90;;;;;;4841810;29;20491;-60
2023/07/08 11:09:07;;;;;;;6.20;2.83;;;21.70;99.90;;;;;;4856755;29;19924;-58
2023/07/08 11:11:42;;;;;;;7.15;2.15;;;21.70;99.90;;;;;;4837449;29;20050;-59
2023/07/08 11:14:39;;;;;;;6.68;2.38;;;21.80;99.90;;;;;;4851541;29;20049;-60
2023/07/08 11:17:20;;;;;;;7.28;2.47;;;21.80;99.90;;;;;;4838228;29;20062;-59
2023/07/08 11:20:09;;;;;;;7.65;2.67;;;21.80;99.90;;;;;;4848009;29;20072;-59
2023/07/08 11:22:46;;;;;;;5.37;2.50;;;21.80;99.90;;;;;;4856485;29;20153;-59
2023/07/08 11:25:19;;;;;;;9.40;3.03;;;21.80;99.90;;;;;;4851676;29;20050;-59
2023/07/08 11:27:50;;;;;;;6.07;2.70;;;21.90;99.90;;;;;;4846471;29;20049;-59
2023/07/08 11:30:24;;;;;;;7.85;2.83;;;21.90;99.90;;;;;;4852291;29;20045;-61
2023/07/08 11:33:06;;;;;;;4.30;2.45;;;21.90;99.90;;;;;;4853614;29;20049;-59
2023/07/08 11:35:39;;;;;;;6.05;2.92;;;21.90;99.90;;;;;;4850968;29;20050;-59
2023/07/08 11:38:15;;;;;;;6.30;2.63;;;22.00;99.90;;;;;;4845318;29;20057;-59
2023/07/08 11:40:57;;;;;;;6.38;2.60;;;22.00;99.90;;;;;;4855656;29;20057;-61
2023/07/08 11:43:37;;;;;;;8.95;3.17;;;22.10;99.90;;;;;;4856040;29;20054;-58
2023/07/08 11:46:07;;;;;;;4.93;2.80;;;22.10;99.90;;;;;;4855205;29;20059;-59
2023/07/08 11:48:45;;;;;;;11.05;3.65;;;22.10;99.90;;;;;;4854916;29;20057;-60
2023/07/08 11:51:22;;;;;;;8.60;3.20;;;22.10;99.90;;;;;;4846433;29;20410;-60
2023/07/08 11:54:02;;;;;;;7.85;3.28;;;22.10;99.90;;;;;;4849007;29;20086;-61
2023/07/08 11:56:50;;;;;;;6.72;3.38;;;22.10;99.90;;;;;;4855839;29;20064;-60
2023/07/08 11:59:19;;;;;;;7.30;3.10;;;22.10;99.90;;;;;;4855575;29;20053;-59
2023/07/08 12:01:53;;;;;;;6.33;2.97;;;22.20;99.90;;;;;;4854697;29;20444;-59
2023/07/08 12:04:28;;;;;;;8.65;2.80;;;22.20;99.90;;;;;;4854429;29;20167;-59
2023/07/08 12:07:15;;;;;;;8.57;3.75;;;22.20;99.90;;;;;;4853366;29;20053;-64
2023/07/08 12:09:59;;;;;;;9.10;3.80;;;22.30;99.90;;;;;;4855234;29;20049;-63
2023/07/08 12:12:34;;;;;;;8.63;3.58;;;22.30;99.90;;;;;;4853897;29;20066;-65
2023/07/08 12:15:16;;;;;;;12.80;4.18;;;22.40;99.90;;;;;;4854055;29;20065;-65
2023/07/08 12:17:44;;;;;;;7.18;3.50;;;22.50;99.90;;;;;;4855215;29;20494;-60
2023/07/08 12:20:34;;;;;;;5.53;3.25;;;22.70;99.90;;;;;;4854685;29;20056;-61
2023/07/08 12:23:03;;;;;;;9.15;3.13;;;22.90;99.90;;;;;;4853601;29;20065;-59
2023/07/08 12:25:34;;;;;;;7.57;3.00;;;23.10;99.90;;;;;;4854694;29;20052;-64
2023/07/08 12:28:03;;;;;;;6.15;2.60;;;23.20;99.90;;;;;;4852022;29;20050;-66
2023/07/08 12:30:32;;;;;;;5.95;2.63;;;23.30;99.90;;;;;;4855311;29;20395;-64
2023/07/08 12:33:01;;;;;;;4.63;2.33;;;23.30;99.90;;;;;;4853421;29;20053;-63
2023/07/08 12:35:32;;;;;;;8.38;2.55;;;23.30;99.90;;;;;;4855517;29;20056;-64
2023/07/08 12:38:03;;;;;;;5.65;2.60;;;23.30;99.90;;;;;;4849991;29;20056;-65
2023/07/08 12:40:30;;;;;;;6.95;3.20;;;23.30;99.90;;;;;;4858021;29;20411;-67
2023/07/08 12:43:01;;;;;;;5.65;2.13;;;23.20;99.90;;;;;;4857681;29;20053;-67
2023/07/08 12:45:31;;;;;;;5.63;2.78;;;23.20;99.90;;;;;;4858007;29;20395;-66
2023/07/08 12:47:58;;;;;;;6.13;2.92;;;23.10;99.90;;;;;;4855060;29;20057;-67
2023/07/08 12:50:26;;;;;;;5.97;2.97;;;23.10;99.90;;;;;;4857905;29;20077;-65
2023/07/08 12:52:54;;;;;;;9.20;2.95;;;23.00;99.90;;;;;;4846038;29;20053;-66
2023/07/08 12:55:23;;;;;;;5.90;2.53;;;23.00;99.90;;;;;;4843661;29;20056;-66
2023/07/08 12:57:52;;;;;;;8.30;3.13;;;23.00;99.90;;;;;;4855276;29;20064;-63
2023/07/08 13:00:30;;;;;;;8.55;2.70;;;22.80;99.90;;;;;;4856100;29;20175;-66
2023/07/08 13:03:08;;;;;;;6.93;2.65;;;22.90;99.90;;;;;;4857426;29;20060;-66
2023/07/08 13:05:37;;;;;;;5.90;2.95;;;22.80;99.90;;;;;;4858012;29;20052;-61
2023/07/08 13:08:05;;;;;;;6.00;3.20;;;22.70;99.90;;;;;;4847749;29;20041;-60
2023/07/08 13:10:34;;;;;;;5.55;2.80;;;22.70;99.90;;;;;;4871707;29;20082;-62